Time;durP1;ratioP1;P1;durP2;ratioP2;P2;SDS_P1;SDS_P2;PMS_P1;PMS_P2;Temp;Humidity;BMP_temperature;BMP_pressure;BME280_temperature;BME280_humidity;BME280_pressure;Samples;Min_cycle;Max_cycle;Signal;HPM_P1;HPM_P2
2022/09/08 00:01:17;;;;;;;;;;;;;;;10.44;56.02;99381.70;1640070;86;20182;-65
2022/09/08 00:03:44;;;;;;;;;;;;;;;10.53;55.67;99379.34;1642420;86;21168;-64
2022/09/08 00:06:16;;;;;;;;;;;;;;;10.65;55.33;99379.28;1640490;86;20188;-65
2022/09/08 00:08:46;;;;;;;;;;;;;;;10.71;55.13;99384.42;1635298;86;20439;-64
2022/09/08 00:11:16;;;;;;;;;;;;;;;10.66;55.20;99391.59;1633407;86;20102;-65
2022/09/08 00:13:43;;;;;;;;;;;;;;;10.61;55.39;99396.58;1633011;86;20161;-64
2022/09/08 00:16:10;;;;;;;;;;;;;;;10.51;55.70;99390.64;1647689;85;21273;-66
2022/09/08 00:18:37;;;;;;;;;;;;;;;10.40;55.85;99397.68;1649802;85;20145;-65
2022/09/08 00:21:04;;;;;;;;;;;;;;;10.26;56.23;99390.39;1646625;85;20269;-64
2022/09/08 00:23:30;;;;;;;;;;;;;;;10.10;56.63;99387.73;1650044;86;20130;-65
2022/09/08 00:25:56;;;;;;;;;;;;;;;9.93;57.02;99388.28;1649924;85;20147;-65
2022/09/08 00:28:23;;;;;;;;;;;;;;;9.77;57.46;99387.80;1614137;87;21829;-65
2022/09/08 00:30:49;;;;;;;;;;;;;;;9.59;58.02;99381.83;1626201;87;20158;-65
2022/09/08 00:33:15;;;;;;;;;;;;;;;9.40;58.51;99379.49;1647489;85;20198;-65
2022/09/08 00:35:43;;;;;;;;;;;;;;;9.22;58.92;99382.80;1648688;86;20154;-64
2022/09/08 00:38:10;;;;;;;;;;;;;;;9.10;59.43;99382.75;1645230;85;20166;-66
2022/09/08 00:40:45;;;;;;;;;;;;;;;9.00;59.87;99384.73;1647161;85;21175;-65
2022/09/08 00:43:11;;;;;;;;;;;;;;;8.90;60.33;99378.25;1649874;86;20189;-65
2022/09/08 00:45:40;;;;;;;;;;;;;;;8.77;60.78;99379.20;1629245;86;20430;-64
2022/09/08 00:48:10;;;;;;;;;;;;;;;8.66;61.30;99380.81;1627414;88;20627;-65
2022/09/08 00:50:37;;;;;;;;;;;;;;;8.58;61.74;99380.30;1629313;86;20424;-64
2022/09/08 00:53:06;;;;;;;;;;;;;;;8.47;62.14;99381.89;1625396;88;21066;-65
2022/09/08 00:55:35;;;;;;;;;;;;;;;8.38;62.50;99379.38;1591678;87;21246;-64
2022/09/08 00:58:01;;;;;;;;;;;;;;;8.30;62.79;99375.36;1626578;87;20152;-65
2022/09/08 01:00:28;;;;;;;;;;;;;;;8.21;63.11;99379.78;1647400;87;20611;-65
2022/09/08 01:02:54;;;;;;;;;;;;;;;8.13;63.32;99373.11;1622583;87;20113;-65
2022/09/08 01:05:23;;;;;;;;;;;;;;;8.03;63.47;99382.95;1624370;88;21153;-65
2022/09/08 01:14:01;;;;;;;;;;;;;;;7.99;64.72;99382.95;1664245;84;20613;-64
2022/09/08 01:16:27;;;;;;;;;;;;;;;7.96;64.91;99376.14;1632297;86;20089;-65
2022/09/08 01:18:56;;;;;;;;;;;;;;;7.92;65.02;99378.78;1640228;86;21164;-64
2022/09/08 01:21:38;;;;;;;;;;;;;;;7.89;65.16;99376.92;1636437;86;20410;-65
2022/09/08 01:24:16;;;;;;;;;;;;;;;7.87;65.21;99382.88;1678081;84;20131;-64
2022/09/08 01:27:04;;;;;;;;;;;;;;;7.83;65.32;99382.34;1678664;84;20127;-67
2022/09/08 01:29:30;;;;;;;;;;;;;;;7.81;65.47;99383.48;1678129;84;20504;-64
2022/09/08 01:31:58;;;;;;;;;;;;;;;7.78;65.53;99380.66;1678038;84;21223;-63
2022/09/08 01:34:24;;;;;;;;;;;;;;;7.74;65.56;99375.34;1678340;84;20147;-64
2022/09/08 01:36:50;;;;;;;;;;;;;;;7.72;65.87;99375.97;1678314;84;20151;-64
2022/09/08 01:39:17;;;;;;;;;;;;;;;7.68;65.97;99376.44;1679303;84;20188;-65
2022/09/08 01:41:43;;;;;;;;;;;;;;;7.62;65.82;99381.02;1684190;84;20180;-64
2022/09/08 01:44:10;;;;;;;;;;;;;;;7.55;65.74;99382.63;1679217;84;21238;-65
2022/09/08 01:46:38;;;;;;;;;;;;;;;7.48;65.89;99378.94;1679061;84;20176;-65
2022/09/08 01:49:04;;;;;;;;;;;;;;;7.41;66.07;99382.19;1681417;84;20450;-65
2022/09/08 01:51:30;;;;;;;;;;;;;;;7.37;66.23;99382.16;1680835;84;20611;-65
2022/09/08 01:53:57;;;;;;;;;;;;;;;7.30;66.29;99383.73;1678560;84;20516;-65
2022/09/08 01:56:24;;;;;;;;;;;;;;;7.20;66.40;99379.50;1678821;84;21154;-64
2022/09/08 01:58:50;;;;;;;;;;;;;;;7.14;66.68;99390.70;1676814;84;20175;-65
2022/09/08 02:01:16;;;;;;;;;;;;;;;7.09;67.06;99381.07;1678553;84;20213;-65
2022/09/08 02:03:43;;;;;;;;;;;;;;;7.09;67.41;99379.75;1679668;84;20449;-65
2022/09/08 02:06:10;;;;;;;;;;;;;;;7.07;67.70;99371.94;1677952;83;20434;-64
2022/09/08 02:08:38;;;;;;;;;;;;;;;7.05;67.82;99373.91;1678791;84;20131;-64
2022/09/08 02:11:05;;;;;;;;;;;;;;;7.02;67.87;99374.20;1679865;84;20111;-65
2022/09/08 02:13:31;;;;;;;;;;;;;;;7.02;68.15;99368.08;1676688;84;20163;-64
2022/09/08 02:16:02;;;;;;;;;;;;;;;7.03;68.39;99372.41;1683220;84;20276;-64
2022/09/08 02:18:30;;;;;;;;;;;;;;;7.03;68.50;99369.27;1680675;84;20207;-65
2022/09/08 02:21:06;;;;;;;;;;;;;;;7.03;68.51;99373.23;1676781;84;21148;-64
2022/09/08 02:23:33;;;;;;;;;;;;;;;7.00;68.63;99364.28;1671503;84;20444;-65
2022/09/08 02:26:01;;;;;;;;;;;;;;;6.98;68.68;99366.73;1677002;84;20123;-64
2022/09/08 02:28:27;;;;;;;;;;;;;;;6.93;68.71;99367.19;1670586;84;20102;-64
2022/09/08 02:31:01;;;;;;;;;;;;;;;6.91;68.91;99366.48;1671069;84;20218;-64
2022/09/08 02:33:28;;;;;;;;;;;;;;;6.89;69.05;99369.78;1676977;84;21203;-65
2022/09/08 02:35:54;;;;;;;;;;;;;;;6.87;69.24;99367.78;1679529;84;20168;-64
2022/09/08 02:38:24;;;;;;;;;;;;;;;6.89;69.40;99371.09;1674687;84;20110;-64
2022/09/08 02:40:50;;;;;;;;;;;;;;;6.91;69.57;99374.42;1676870;85;20154;-64
2022/09/08 02:43:17;;;;;;;;;;;;;;;6.92;69.66;99374.77;1680437;84;20468;-65
2022/09/08 02:45:44;;;;;;;;;;;;;;;6.93;69.77;99377.77;1677076;84;21069;-65
2022/09/08 02:48:10;;;;;;;;;;;;;;;6.95;69.93;99378.93;1671849;84;20202;-64
2022/09/08 02:50:38;;;;;;;;;;;;;;;6.95;70.02;99377.13;1673077;84;20189;-64
2022/09/08 02:53:04;;;;;;;;;;;;;;;6.94;69.85;99370.16;1678377;84;20582;-65
2022/09/08 02:55:30;;;;;;;;;;;;;;;6.90;69.75;99371.45;1679795;84;21045;-64
2022/09/08 02:57:57;;;;;;;;;;;;;;;6.87;69.61;99385.45;1677742;84;21888;-64
2022/09/08 03:00:30;;;;;;;;;;;;;;;6.82;69.58;99390.71;1677140;84;20131;-64
2022/09/08 03:02:52;;;;;;;;;;;;;;;6.79;69.62;99388.36;1670515;84;20148;-65
2022/09/08 03:05:18;;;;;;;;;;;;;;;6.76;69.59;99383.84;1671488;84;20603;-65
2022/09/08 03:07:44;;;;;;;;;;;;;;;6.75;70.01;99378.23;1678093;84;20149;-65
2022/09/08 03:10:11;;;;;;;;;;;;;;;6.75;69.94;99370.30;1661460;84;21215;-65
2022/09/08 03:12:38;;;;;;;;;;;;;;;6.77;69.74;99377.11;1639526;86;20150;-64
2022/09/08 03:15:05;;;;;;;;;;;;;;;6.77;69.55;99378.91;1637192;86;20094;-64
2022/09/08 03:17:32;;;;;;;;;;;;;;;6.78;69.34;99377.91;1619630;87;20185;-64
2022/09/08 03:19:58;;;;;;;;;;;;;;;6.78;69.07;99385.84;1618035;87;20205;-65
2022/09/08 03:22:25;;;;;;;;;;;;;;;6.72;69.06;99387.78;1617295;87;21344;-65
2022/09/08 03:24:51;;;;;;;;;;;;;;;6.69;69.13;99385.42;1614521;87;20089;-65
2022/09/08 03:27:17;;;;;;;;;;;;;;;6.66;69.21;99385.72;1621654;87;20105;-65
2022/09/08 03:29:44;;;;;;;;;;;;;;;6.68;69.44;99382.43;1628467;86;20130;-65
2022/09/08 03:32:10;;;;;;;;;;;;;;;6.67;69.49;99388.20;1597412;88;20094;-64
2022/09/08 03:34:37;;;;;;;;;;;;;;;6.68;69.57;99386.39;1628545;86;21170;-64
2022/09/08 03:37:03;;;;;;;;;;;;;;;6.70;69.56;99391.06;1602510;89;20127;-64
2022/09/08 03:39:30;;;;;;;;;;;;;;;6.69;69.44;99392.88;1630466;86;20121;-65
2022/09/08 03:41:56;;;;;;;;;;;;;;;6.68;69.41;99398.30;1632976;86;20143;-64
2022/09/08 03:44:22;;;;;;;;;;;;;;;6.67;69.49;99394.81;1630697;86;20129;-63
2022/09/08 03:46:49;;;;;;;;;;;;;;;6.68;69.50;99398.30;1624933;86;21356;-63
2022/09/08 03:49:15;;;;;;;;;;;;;;;6.69;69.68;99398.16;1630540;88;20104;-64
2022/09/08 03:51:41;;;;;;;;;;;;;;;6.71;69.91;99393.55;1616127;87;20161;-64
2022/09/08 03:56:53;;;;;;;;;;;;;;;6.77;69.95;99392.13;1608992;87;20142;-65
2022/09/08 03:59:19;;;;;;;;;;;;;;;6.83;69.86;99391.52;1610717;87;21164;-65
2022/09/08 04:01:45;;;;;;;;;;;;;;;6.87;69.72;99392.06;1617468;87;20105;-65
2022/09/08 04:04:12;;;;;;;;;;;;;;;6.91;69.58;99390.28;1620221;87;20437;-64
2022/09/08 04:06:39;;;;;;;;;;;;;;;6.94;69.53;99384.70;1609693;87;20424;-64
2022/09/08 04:09:06;;;;;;;;;;;;;;;6.98;69.39;99386.09;1618687;87;20186;-65
2022/09/08 04:11:32;;;;;;;;;;;;;;;7.08;69.47;99390.81;1642722;85;21160;-64
2022/09/08 04:13:59;;;;;;;;;;;;;;;7.51;69.65;99399.81;1647942;85;20079;-65
2022/09/08 04:16:26;;;;;;;;;;;;;;;8.12;69.24;99403.23;1649234;85;20479;-65
2022/09/08 04:18:53;;;;;;;;;;;;;;;8.55;68.29;99400.49;1644171;85;20721;-66
2022/09/08 04:21:19;;;;;;;;;;;;;;;8.70;67.59;99406.05;1640604;85;20091;-66
2022/09/08 04:23:45;;;;;;;;;;;;;;;8.74;67.16;99414.48;1640059;85;21283;-66
2022/09/08 04:26:13;;;;;;;;;;;;;;;8.75;66.98;99411.70;1645812;85;20092;-65
2022/09/08 04:28:42;;;;;;;;;;;;;;;8.81;66.78;99410.23;1641144;85;20139;-63
2022/09/08 04:31:11;;;;;;;;;;;;;;;9.01;66.67;99411.61;1641098;85;20177;-64
2022/09/08 04:33:38;;;;;;;;;;;;;;;9.27;66.05;99417.64;1644545;85;20131;-65
2022/09/08 04:36:12;;;;;;;;;;;;;;;9.45;65.49;99415.67;1646982;85;21411;-65
2022/09/08 04:38:39;;;;;;;;;;;;;;;9.50;64.97;99412.52;1646704;85;20102;-66
2022/09/08 04:41:06;;;;;;;;;;;;;;;9.49;64.80;99412.20;1649544;85;20131;-65
2022/09/08 04:43:33;;;;;;;;;;;;;;;9.47;64.71;99411.52;1641844;87;20078;-65
2022/09/08 04:46:04;;;;;;;;;;;;;;;9.45;64.58;99413.51;1636496;85;20103;-66
2022/09/08 04:48:31;;;;;;;;;;;;;;;9.42;64.51;99412.02;1637849;85;21895;-65
2022/09/08 04:50:59;;;;;;;;;;;;;;;9.39;64.21;99412.34;1653218;85;20172;-66
2022/09/08 04:53:26;;;;;;;;;;;;;;;9.28;63.82;99412.67;1644127;85;20429;-67
2022/09/08 04:55:53;;;;;;;;;;;;;;;9.22;63.70;99404.86;1646704;85;20102;-67
2022/09/08 04:58:19;;;;;;;;;;;;;;;9.25;63.61;99413.00;1648612;85;20154;-65
2022/09/08 05:00:45;;;;;;;;;;;;;;;9.35;63.27;99414.16;1645799;85;21948;-66
2022/09/08 05:03:12;;;;;;;;;;;;;;;9.38;63.00;99415.17;1651591;85;20430;-65
2022/09/08 05:05:38;;;;;;;;;;;;;;;9.37;62.98;99413.00;1649094;85;20479;-66
2022/09/08 05:08:05;;;;;;;;;;;;;;;9.40;62.99;99411.84;1641596;85;21236;-66
2022/09/08 05:10:34;;;;;;;;;;;;;;;9.46;63.04;99409.38;1652355;85;20447;-67
2022/09/08 05:13:00;;;;;;;;;;;;;;;9.76;63.28;99405.22;1661131;85;22092;-66
2022/09/08 05:15:27;;;;;;;;;;;;;;;10.45;62.72;99408.63;1654183;86;20137;-66
2022/09/08 05:17:54;;;;;;;;;;;;;;;11.14;61.46;99395.33;1657227;84;20174;-66
2022/09/08 05:20:21;;;;;;;;;;;;;;;12.18;59.84;99394.66;1659453;85;20146;-65
2022/09/08 05:22:47;;;;;;;;;;;;;;;13.48;57.17;99393.33;1651103;84;20241;-67
2022/09/08 05:25:14;;;;;;;;;;;;;;;14.90;54.25;99383.05;1653554;85;21167;-67
2022/09/08 05:27:40;;;;;;;;;;;;;;;16.47;50.47;99378.36;1661385;85;20212;-66
2022/09/08 05:30:07;;;;;;;;;;;;;;;17.99;46.39;99377.90;1653318;85;20151;-65
2022/09/08 05:32:34;;;;;;;;;;;;;;;19.35;43.12;99377.91;1658019;85;20105;-65
2022/09/08 05:35:01;;;;;;;;;;;;;;;20.57;39.85;99375.30;1642510;85;20187;-65
2022/09/08 05:37:28;;;;;;;;;;;;;;;21.64;38.06;99372.87;1654751;85;21345;-68
2022/09/08 05:39:54;;;;;;;;;;;;;;;22.85;35.79;99371.51;1657069;85;20171;-66
2022/09/08 05:42:20;;;;;;;;;;;;;;;24.00;33.70;99364.30;1655973;85;20134;-67
2022/09/08 05:44:47;;;;;;;;;;;;;;;25.09;31.69;99361.71;1649236;85;20212;-67
2022/09/08 05:47:13;;;;;;;;;;;;;;;26.05;29.36;99361.87;1649025;84;20104;-65
2022/09/08 05:49:40;;;;;;;;;;;;;;;26.67;27.93;99367.78;1664961;85;21175;-65
2022/09/08 05:52:06;;;;;;;;;;;;;;;27.25;27.27;99369.48;1649880;85;20163;-66
2022/09/08 05:54:32;;;;;;;;;;;;;;;27.83;25.98;99374.06;1658841;84;20266;-66
2022/09/08 05:57:00;;;;;;;;;;;;;;;28.11;25.53;99369.20;1661774;85;20093;-66
2022/09/08 05:59:27;;;;;;;;;;;;;;;28.44;25.21;99370.27;1664759;85;20127;-66
2022/09/08 06:01:54;;;;;;;;;;;;;;;28.72;24.77;99367.25;1661416;85;21283;-66
2022/09/08 06:04:20;;;;;;;;;;;;;;;29.11;24.22;99373.34;1668224;84;20088;-67
2022/09/08 06:06:47;;;;;;;;;;;;;;;29.70;23.64;99366.48;1680077;84;20198;-66
2022/09/08 06:09:14;;;;;;;;;;;;;;;30.43;21.98;99367.49;1683562;84;20478;-66
2022/09/08 06:11:42;;;;;;;;;;;;;;;30.83;21.79;99370.57;1694600;84;20109;-66
2022/09/08 06:14:10;;;;;;;;;;;;;;;31.39;20.96;99366.91;1680871;84;21161;-66
2022/09/08 06:16:37;;;;;;;;;;;;;;;31.76;20.63;99368.00;1690441;84;20137;-67
2022/09/08 06:19:06;;;;;;;;;;;;;;;31.90;20.27;99367.95;1685580;84;20175;-66
2022/09/08 06:21:33;;;;;;;;;;;;;;;32.00;20.11;99371.03;1687737;84;20104;-66
2022/09/08 06:24:02;;;;;;;;;;;;;;;32.44;19.79;99366.84;1664927;86;20129;-66
2022/09/08 06:26:45;;;;;;;;;;;;;;;32.87;19.43;99369.27;1656775;86;21143;-67
2022/09/08 06:29:27;;;;;;;;;;;;;;;33.19;19.35;99372.19;1657762;84;20153;-65
2022/09/08 06:32:16;;;;;;;;;;;;;;;33.62;18.63;99372.84;1633533;86;20140;-66
2022/09/08 06:34:46;;;;;;;;;;;;;;;33.79;18.16;99369.52;1623587;88;20127;-67
2022/09/08 06:37:15;;;;;;;;;;;;;;;33.89;18.22;99371.97;1662291;86;20447;-66
2022/09/08 06:39:47;;;;;;;;;;;;;;;34.21;18.08;99365.70;1597449;88;21204;-69
2022/09/08 06:42:16;;;;;;;;;;;;;;;34.36;17.93;99374.83;1661422;86;20081;-67
2022/09/08 06:44:42;;;;;;;;;;;;;;;34.82;16.66;99375.41;1666454;86;20127;-66
2022/09/08 06:47:15;;;;;;;;;;;;;;;35.00;16.39;99377.75;1661308;84;20436;-66
2022/09/08 06:49:41;;;;;;;;;;;;;;;34.95;16.71;99377.94;1617693;88;20409;-65
2022/09/08 06:52:17;;;;;;;;;;;;;;;35.48;16.27;99375.13;1658089;86;21115;-67
2022/09/08 06:54:53;;;;;;;;;;;;;;;35.98;16.09;99378.61;1647934;86;20441;-67
2022/09/08 06:57:41;;;;;;;;;;;;;;;36.68;15.09;99375.41;1640507;86;20106;-66
2022/09/08 07:00:14;;;;;;;;;;;;;;;37.04;14.22;99382.38;1641515;86;20112;-70
2022/09/08 07:02:59;;;;;;;;;;;;;;;36.87;13.88;99381.98;1638190;86;20451;-67
2022/09/08 07:05:32;;;;;;;;;;;;;;;36.38;14.21;99381.09;1632263;86;21178;-66
2022/09/08 07:08:26;;;;;;;;;;;;;;;36.27;14.48;99388.78;1627328;86;20479;-67
2022/09/08 07:11:12;;;;;;;;;;;;;;;36.38;14.21;99390.78;1629400;86;20224;-68
2022/09/08 07:13:58;;;;;;;;;;;;;;;36.15;14.43;99385.41;1629670;86;20104;-66
2022/09/08 07:17:00;;;;;;;;;;;;;;;36.19;14.44;99382.19;1649702;86;20129;-67
2022/09/08 07:19:41;;;;;;;;;;;;;;;36.53;13.72;99387.38;1649007;85;21117;-65
2022/09/08 07:22:23;;;;;;;;;;;;;;;36.33;13.76;99384.65;1605072;87;20146;-66
2022/09/08 07:24:50;;;;;;;;;;;;;;;36.07;14.37;99386.30;1592959;86;20429;-66
2022/09/08 07:27:17;;;;;;;;;;;;;;;36.34;13.46;99384.33;1620198;86;20165;-67
2022/09/08 07:29:48;;;;;;;;;;;;;;;36.40;13.30;99381.55;1631822;86;20117;-68
2022/09/08 07:32:32;;;;;;;;;;;;;;;36.19;13.25;99384.95;1620213;86;21172;-66
2022/09/08 07:35:19;;;;;;;;;;;;;;;36.33;13.09;99392.39;1594113;86;20110;-67
2022/09/08 07:37:48;;;;;;;;;;;;;;;36.56;12.62;99391.42;1619341;86;20102;-67
2022/09/08 07:40:25;;;;;;;;;;;;;;;36.84;12.53;99393.76;1631317;86;20105;-67
2022/09/08 07:42:56;;;;;;;;;;;;;;;37.06;12.31;99396.69;1626451;86;20428;-66
2022/09/08 07:45:32;;;;;;;;;;;;;;;37.00;12.54;99398.06;1629444;86;21283;-67
2022/09/08 07:48:18;;;;;;;;;;;;;;;37.25;12.29;99400.27;1615629;86;20117;-66
2022/09/08 07:50:56;;;;;;;;;;;;;;;37.78;11.83;99400.54;1631797;86;20175;-66
2022/09/08 07:53:32;;;;;;;;;;;;;;;38.14;11.54;99396.25;1644755;86;20504;-66
2022/09/08 07:56:17;;;;;;;;;;;;;;;38.71;10.93;99393.04;1622427;85;20119;-67
2022/09/08 07:58:56;;;;;;;;;;;;;;;38.70;10.90;99392.80;1643323;86;21163;-66
2022/09/08 08:01:38;;;;;;;;;;;;;;;39.08;10.40;99400.55;1626961;86;20093;-66
2022/09/08 08:04:23;;;;;;;;;;;;;;;38.98;10.45;99395.53;1624846;86;20137;-67
2022/09/08 08:06:51;;;;;;;;;;;;;;;39.24;10.44;99400.75;1598051;87;20126;-67
2022/09/08 08:09:46;;;;;;;;;;;;;;;40.07;9.90;99395.27;1621371;86;20109;-66
2022/09/08 08:12:34;;;;;;;;;;;;;;;40.49;9.60;99389.73;1617039;86;22842;-65
2022/09/08 08:15:13;;;;;;;;;;;;;;;40.79;9.66;99389.83;1626071;86;20133;-67
2022/09/08 08:18:01;;;;;;;;;;;;;;;40.85;9.28;99379.40;1664957;84;20200;-66
2022/09/08 08:20:40;;;;;;;;;;;;;;;40.95;9.19;99374.61;1670098;84;20098;-66
2022/09/08 08:23:28;;;;;;;;;;;;;;;41.15;9.45;99377.50;1664382;84;20159;-67
2022/09/08 08:26:21;;;;;;;;;;;;;;;41.73;8.90;99375.19;1658800;84;21300;-66
2022/09/08 08:28:48;;;;;;;;;;;;;;;42.06;8.70;99377.16;1662414;84;20124;-68
2022/09/08 08:31:43;;;;;;;;;;;;;;;42.76;8.33;99385.50;1623115;84;20199;-67
2022/09/08 08:34:19;;;;;;;;;;;;;;;42.71;8.19;99386.47;1656876;84;20197;-67
2022/09/08 08:36:46;;;;;;;;;;;;;;;42.43;8.37;99381.38;1659326;84;20103;-66
2022/09/08 08:39:16;;;;;;;;;;;;;;;41.73;8.26;99385.55;1660930;84;21110;-66
2022/09/08 08:41:58;;;;;;;;;;;;;;;39.93;9.33;99387.98;1663407;84;20101;-66
2022/09/08 08:44:43;;;;;;;;;;;;;;;39.67;9.48;99381.68;1668358;84;20115;-66
2022/09/08 08:47:23;;;;;;;;;;;;;;;40.14;9.47;99382.05;1674111;84;20142;-66
2022/09/08 08:50:08;;;;;;;;;;;;;;;40.80;9.14;99372.75;1676776;84;20203;-67
2022/09/08 08:52:44;;;;;;;;;;;;;;;41.20;8.93;99377.76;1678798;84;21241;-66
2022/09/08 08:55:25;;;;;;;;;;;;;;;41.24;8.53;99376.66;1659792;84;20760;-67
2022/09/08 08:58:24;;;;;;;;;;;;;;;41.33;8.69;99364.45;1654522;84;20141;-66
2022/09/08 09:00:59;;;;;;;;;;;;;;;41.58;8.67;99359.41;1665726;84;20156;-66
2022/09/08 09:03:46;;;;;;;;;;;;;;;42.17;8.40;99357.75;1657931;84;20110;-66
2022/09/08 09:06:46;;;;;;;;;;;;;;;42.79;8.12;99363.75;1652268;84;22007;-67
2022/09/08 09:09:45;;;;;;;;;;;;;;;42.76;7.63;99362.34;1656965;84;20149;-67
2022/09/08 09:12:15;;;;;;;;;;;;;;;41.30;8.48;99362.38;1665108;84;20181;-66
2022/09/08 09:15:00;;;;;;;;;;;;;;;41.37;8.43;99361.10;1657441;84;20726;-66
2022/09/08 09:17:37;;;;;;;;;;;;;;;41.82;8.13;99362.33;1597006;88;20135;-66
2022/09/08 09:20:19;;;;;;;;;;;;;;;41.51;7.92;99370.46;1650670;84;21129;-67
2022/09/08 09:23:14;;;;;;;;;;;;;;;40.50;8.78;99370.41;1660627;84;38425;-66
2022/09/08 09:25:44;;;;;;;;;;;;;;;40.42;8.71;99374.22;1682538;84;20202;-66
2022/09/08 09:28:41;;;;;;;;;;;;;;;41.23;8.34;99368.64;1636193;84;20141;-66
2022/09/08 09:31:14;;;;;;;;;;;;;;;41.90;8.12;99359.81;1669730;84;20127;-67
2022/09/08 09:33:50;;;;;;;;;;;;;;;42.82;7.87;99366.37;1655938;84;21153;-66
2022/09/08 09:36:32;;;;;;;;;;;;;;;42.64;7.47;99362.63;1666576;84;20137;-67
2022/09/08 09:39:21;;;;;;;;;;;;;;;42.34;7.68;99357.92;1661365;84;20118;-67
2022/09/08 09:42:08;;;;;;;;;;;;;;;42.08;7.19;99351.06;1666426;84;20508;-67
2022/09/08 09:45:12;;;;;;;;;;;;;;;41.68;7.67;99352.34;1659462;84;20122;-67
2022/09/08 09:48:00;;;;;;;;;;;;;;;41.17;7.79;99352.81;1662921;84;20515;-66
2022/09/08 09:50:30;;;;;;;;;;;;;;;40.61;7.96;99352.71;1672568;84;20091;-67
2022/09/08 09:53:24;;;;;;;;;;;;;;;39.88;8.26;99358.45;1661673;84;20420;-67
2022/09/08 09:56:28;;;;;;;;;;;;;;;38.75;9.05;99357.82;1661536;84;20100;-65
2022/09/08 09:59:10;;;;;;;;;;;;;;;37.95;9.54;99351.09;1668634;84;20102;-66
2022/09/08 10:01:43;;;;;;;;;;;;;;;37.61;9.53;99358.03;1671508;84;21153;-67
2022/09/08 10:04:36;;;;;;;;;;;;;;;37.18;9.92;99352.30;1659469;84;20164;-67
2022/09/08 10:07:25;;;;;;;;;;;;;;;37.94;9.35;99354.21;1656617;84;20090;-66
2022/09/08 10:10:29;;;;;;;;;;;;;;;38.51;8.91;99358.77;1664905;84;20127;-67
2022/09/08 10:13:32;;;;;;;;;;;;;;;38.14;9.11;99369.88;1682561;84;20127;-67
2022/09/08 10:16:11;;;;;;;;;;;;;;;37.90;9.32;99363.85;1669381;84;21276;-66
2022/09/08 10:19:03;;;;;;;;;;;;;;;38.25;9.27;99362.61;1669015;84;20145;-66
2022/09/08 10:21:50;;;;;;;;;;;;;;;38.38;9.21;99361.41;1670464;84;20165;-66
2022/09/08 10:24:29;;;;;;;;;;;;;;;38.71;8.90;99360.50;1657006;84;20124;-67
2022/09/08 10:27:08;;;;;;;;;;;;;;;39.13;8.66;99350.20;1655203;84;20429;-67
2022/09/08 10:30:06;;;;;;;;;;;;;;;39.75;8.33;99352.82;1660082;84;21301;-66
2022/09/08 10:32:57;;;;;;;;;;;;;;;40.03;8.05;99353.37;1665064;84;20090;-67
2022/09/08 10:35:47;;;;;;;;;;;;;;;40.27;7.87;99346.70;1653570;84;20104;-66
2022/09/08 10:38:40;;;;;;;;;;;;;;;40.68;7.94;99339.47;1657614;84;20623;-66
2022/09/08 10:41:35;;;;;;;;;;;;;;;40.95;7.69;99334.17;1644177;84;20124;-68
2022/09/08 10:44:22;;;;;;;;;;;;;;;41.29;7.62;99337.84;1638213;86;21174;-66
2022/09/08 10:47:13;;;;;;;;;;;;;;;41.46;7.52;99329.54;1650949;86;20158;-68
2022/09/08 10:50:09;;;;;;;;;;;;;;;41.54;7.58;99334.00;1633380;86;20156;-66
2022/09/08 10:53:10;;;;;;;;;;;;;;;41.27;7.33;99334.63;1649270;86;20621;-67
2022/09/08 10:56:00;;;;;;;;;;;;;;;39.97;7.96;99338.75;1639002;86;20171;-66
2022/09/08 10:58:50;;;;;;;;;;;;;;;39.39;8.36;99344.86;1632555;86;21183;-66
2022/09/08 11:01:51;;;;;;;;;;;;;;;39.00;8.31;99338.39;1634389;86;20117;-66
2022/09/08 11:04:21;;;;;;;;;;;;;;;37.86;8.82;99342.11;1632938;86;20124;-66
2022/09/08 11:07:16;;;;;;;;;;;;;;;35.58;10.17;99350.67;1630381;86;20526;-66
2022/09/08 11:10:09;;;;;;;;;;;;;;;34.31;11.41;99349.56;1647338;86;20229;-66
2022/09/08 11:12:51;;;;;;;;;;;;;;;33.64;11.60;99353.45;1638135;86;21199;-67
2022/09/08 11:15:36;;;;;;;;;;;;;;;33.08;12.10;99348.03;1633830;87;20128;-66
2022/09/08 11:18:09;;;;;;;;;;;;;;;31.97;12.90;99345.48;1676697;83;20112;-66
2022/09/08 11:20:45;;;;;;;;;;;;;;;31.23;13.53;99351.91;1662558;83;20725;-66
2022/09/08 11:23:27;;;;;;;;;;;;;;;31.18;13.81;99351.20;1667201;83;20118;-66
2022/09/08 11:26:03;;;;;;;;;;;;;;;31.03;13.62;99349.02;1687850;83;21165;-66
2022/09/08 11:28:51;;;;;;;;;;;;;;;30.76;13.79;99349.03;1695812;83;20222;-66
2022/09/08 11:31:52;;;;;;;;;;;;;;;29.91;14.57;99341.78;1685310;83;20150;-66
2022/09/08 11:34:39;;;;;;;;;;;;;;;29.10;15.08;99328.43;1697305;83;20165;-67
2022/09/08 11:37:28;;;;;;;;;;;;;;;28.33;15.98;99332.35;1697019;83;20103;-67
2022/09/08 11:40:02;;;;;;;;;;;;;;;28.03;15.91;99334.82;1697829;83;21342;-66
2022/09/08 11:42:44;;;;;;;;;;;;;;;27.83;15.78;99330.33;1697918;83;20147;-66
2022/09/08 11:45:33;;;;;;;;;;;;;;;27.69;16.27;99337.53;1658890;86;20113;-66
2022/09/08 11:48:10;;;;;;;;;;;;;;;27.61;16.49;99342.81;1665673;85;20078;-66
2022/09/08 11:50:43;;;;;;;;;;;;;;;27.32;16.43;99346.23;1665676;86;20110;-66
2022/09/08 11:53:38;;;;;;;;;;;;;;;26.89;16.66;99346.46;1653406;86;21146;-66
2022/09/08 11:56:34;;;;;;;;;;;;;;;26.38;17.39;99342.25;1652452;86;20098;-65
2022/09/08 11:59:26;;;;;;;;;;;;;;;25.99;17.95;99345.27;1662180;86;20114;-65
2022/09/08 12:02:17;;;;;;;;;;;;;;;25.64;18.51;99340.08;1656900;86;20102;-67
2022/09/08 12:04:50;;;;;;;;;;;;;;;25.56;19.05;99342.52;1626920;87;20311;-66
2022/09/08 12:07:38;;;;;;;;;;;;;;;25.54;18.85;99333.80;1632788;87;21210;-66
2022/09/08 12:10:42;;;;;;;;;;;;;;;25.57;19.11;99334.09;1687708;84;20106;-67
2022/09/08 12:13:24;;;;;;;;;;;;;;;25.55;18.81;99348.50;1672116;84;20205;-66
2022/09/08 12:16:11;;;;;;;;;;;;;;;25.11;18.87;99341.84;1681416;83;20489;-65
2022/09/08 12:18:54;;;;;;;;;;;;;;;24.89;18.77;99335.80;1683754;84;20467;-64
2022/09/08 12:21:42;;;;;;;;;;;;;;;24.70;19.26;99338.66;1674146;84;21229;-66
2022/09/08 12:24:32;;;;;;;;;;;;;;;24.57;19.21;99337.25;1669357;83;20490;-66
2022/09/08 12:27:08;;;;;;;;;;;;;;;24.45;19.54;99342.91;1664394;84;20150;-67
2022/09/08 12:29:50;;;;;;;;;;;;;;;24.18;19.97;99351.70;1670040;84;20204;-66
2022/09/08 12:32:26;;;;;;;;;;;;;;;24.07;19.77;99344.52;1683875;83;20090;-66
2022/09/08 12:35:14;;;;;;;;;;;;;;;23.83;20.34;99341.88;1652503;86;21188;-66
2022/09/08 12:37:53;;;;;;;;;;;;;;;23.67;20.28;99338.21;1623389;88;20512;-66
2022/09/08 12:40:32;;;;;;;;;;;;;;;23.63;20.18;99343.06;1622767;87;20109;-66
2022/09/08 12:43:19;;;;;;;;;;;;;;;23.58;20.29;99336.23;1644957;85;20105;-67
2022/09/08 12:46:08;;;;;;;;;;;;;;;23.48;20.50;99330.72;1639173;85;20126;-65
2022/09/08 12:48:55;;;;;;;;;;;;;;;23.38;20.80;99340.13;1630723;85;21148;-65
2022/09/08 12:51:33;;;;;;;;;;;;;;;23.20;21.08;99344.78;1649085;85;20098;-67
2022/09/08 12:54:23;;;;;;;;;;;;;;;23.05;21.08;99341.08;1629837;85;20092;-66
2022/09/08 12:56:56;;;;;;;;;;;;;;;22.96;21.03;99339.38;1640980;85;20122;-66
2022/09/08 12:59:32;;;;;;;;;;;;;;;22.87;20.86;99335.45;1630662;85;20093;-66
2022/09/08 13:02:19;;;;;;;;;;;;;;;22.83;20.73;99332.16;1649205;85;21255;-66
2022/09/08 13:05:07;;;;;;;;;;;;;;;22.77;21.17;99329.08;1638915;85;20148;-66
2022/09/08 13:07:37;;;;;;;;;;;;;;;22.76;21.16;99326.91;1646607;85;20089;-66
2022/09/08 13:10:07;;;;;;;;;;;;;;;22.76;20.64;99322.83;1649283;85;20101;-66
2022/09/08 13:12:53;;;;;;;;;;;;;;;22.73;20.88;99322.02;1648182;85;20155;-67
2022/09/08 13:15:43;;;;;;;;;;;;;;;22.68;20.90;99324.66;1581557;88;22130;-67
2022/09/08 13:18:16;;;;;;;;;;;;;;;22.60;21.10;99325.06;1567310;91;20112;-65
2022/09/08 13:20:49;;;;;;;;;;;;;;;22.56;20.86;99316.61;1622825;86;20186;-66
2022/09/08 13:23:31;;;;;;;;;;;;;;;22.54;20.71;99318.75;1640372;86;20196;-66
2022/09/08 13:26:10;;;;;;;;;;;;;;;22.52;20.13;99311.95;1643813;86;20135;-66
2022/09/08 13:29:03;;;;;;;;;;;;;;;22.45;20.48;99303.16;1645290;86;21204;-66
2022/09/08 13:31:39;;;;;;;;;;;;;;;22.38;20.36;99302.53;1664305;86;20114;-67
2022/09/08 13:34:27;;;;;;;;;;;;;;;22.31;20.60;99298.66;1622350;87;20124;-66
2022/09/08 13:37:12;;;;;;;;;;;;;;;22.28;20.79;99305.11;1633298;87;20090;-67
2022/09/08 13:40:00;;;;;;;;;;;;;;;22.27;20.69;99301.57;1624071;87;20111;-68
2022/09/08 13:42:42;;;;;;;;;;;;;;;22.27;21.03;99303.45;1619813;87;21188;-67
2022/09/08 13:45:35;;;;;;;;;;;;;;;22.26;21.20;99303.19;1625202;87;20085;-66